Terminal Aerodrome Forecast
Issued by NWS

Home | Current Version | Previous Version | Text Only | Print | Product List | Glossary On
Versions: 1 2 3 4 5 6 7 8 9 10 11 12 13 14 15 16
000
FTUS46 KSEW 252300 RRA
TAFHQM
TAF
KHQM 252342Z 2600/2624 08008KT P6SM SCT150 BKN200
     FM260900 09006KT 4SM BR SCT001
     FM261300 09008KT 3SM BR BKN004
     FM262000 19009KT 6SM BR BKN009=

USA.gov is the U.S. government's official web portal to all federal, state and local government web resources and services.